createdAt,value
2019-05-16T00:00:46.627Z,5.00
2019-05-16T00:05:53.942Z,4.47
2019-05-16T00:10:51.269Z,5.93
2019-05-16T00:15:52.687Z,5.10
2019-05-16T00:20:58.510Z,5.17
2019-05-16T00:26:00.334Z,5.70
2019-05-16T00:31:04.795Z,5.50
2019-05-16T00:36:08.925Z,5.53
2019-05-16T00:41:09.951Z,5.60
2019-05-16T00:46:11.388Z,6.33
2019-05-16T00:51:12.973Z,5.17
2019-05-16T00:56:14.475Z,5.63
2019-05-16T01:01:16.052Z,6.40
2019-05-16T01:06:22.500Z,5.37
2019-05-16T01:11:20.964Z,6.27
2019-05-16T01:16:22.550Z,6.30
2019-05-16T01:21:24.097Z,6.40
2019-05-16T01:26:25.501Z,5.80
2019-05-16T01:31:27.960Z,7.00
2019-05-16T01:36:36.859Z,6.67
2019-05-16T01:41:33.136Z,6.43
2019-05-16T01:46:34.505Z,6.20
2019-05-16T01:51:38.024Z,6.40
2019-05-16T01:56:39.532Z,6.80
2019-05-16T02:01:41.034Z,7.33
2019-05-16T02:06:51.737Z,6.67
2019-05-16T02:11:48.023Z,7.20
2019-05-16T02:16:49.562Z,7.27
2019-05-16T02:21:51.066Z,7.07
2019-05-16T02:26:52.620Z,7.63
2019-05-16T02:31:54.182Z,6.60
2019-05-16T02:37:14.494Z,6.47
2019-05-16T02:42:01.106Z,6.77
2019-05-16T02:47:02.716Z,7.33
2019-05-16T02:52:04.138Z,6.93
2019-05-16T02:57:05.648Z,7.03
2019-05-16T03:02:07.134Z,6.87
2019-05-16T03:07:13.552Z,6.13
2019-05-16T03:12:12.188Z,6.60
2019-05-16T03:17:14.032Z,6.37
2019-05-16T03:22:16.860Z,6.50
2019-05-16T03:27:21.372Z,5.93
2019-05-16T03:32:24.334Z,6.60
2019-05-16T03:37:25.347Z,5.50
2019-05-16T03:42:26.914Z,5.57
2019-05-16T03:47:31.062Z,6.20
2019-05-16T03:52:31.625Z,6.33
2019-05-16T03:57:33.115Z,6.37
2019-05-16T04:02:34.557Z,7.85
2019-05-16T04:07:35.965Z,7.60
2019-05-16T04:12:37.361Z,6.97
2019-05-16T04:17:41.240Z,7.27
2019-05-16T04:22:42.249Z,6.37
2019-05-16T04:27:43.775Z,6.43
2019-05-16T04:32:45.206Z,7.53
2019-05-16T04:37:46.727Z,6.80
2019-05-16T04:42:51.048Z,6.53
2019-05-16T04:47:51.756Z,5.97
2019-05-16T04:52:53.249Z,6.80
2019-05-16T04:57:54.769Z,5.83
2019-05-16T05:02:56.355Z,6.33
2019-05-16T05:07:57.887Z,6.23
2019-05-16T05:13:01.529Z,6.00
2019-05-16T05:18:03.027Z,5.47
2019-05-16T05:23:04.531Z,5.83
2019-05-16T05:28:06.167Z,6.27
2019-05-16T05:33:10.030Z,6.10
2019-05-16T05:38:11.171Z,6.30
2019-05-16T05:43:12.718Z,5.63
2019-05-16T05:48:14.264Z,4.60
2019-05-16T05:53:15.897Z,5.17
2019-05-16T05:58:17.409Z,4.53
2019-05-16T06:03:22.476Z,4.90
2019-05-16T06:08:22.351Z,4.93
2019-05-16T06:13:23.871Z,4.37
2019-05-16T06:18:25.428Z,4.17
2019-05-16T06:23:26.867Z,4.17
2019-05-16T06:28:30.822Z,4.53
2019-05-16T06:33:31.911Z,4.60
2019-05-16T06:38:33.475Z,4.53
2019-05-16T06:43:35.174Z,4.40
2019-05-16T06:48:36.692Z,4.30
2019-05-16T06:53:40.316Z,3.90
2019-05-16T06:58:47.703Z,3.87
2019-05-16T07:03:45.129Z,4.03
2019-05-16T07:08:46.652Z,4.30
2019-05-16T07:13:51.760Z,3.90
2019-05-16T07:18:51.642Z,3.60
2019-05-16T07:23:53.902Z,3.50
2019-05-16T07:28:55.414Z,2.77
2019-05-16T07:33:56.924Z,2.50
2019-05-16T07:38:59.803Z,2.67
2019-05-16T07:44:01.295Z,2.70
2019-05-16T07:49:02.823Z,2.73
2019-05-16T07:54:04.331Z,2.87
2019-05-16T07:59:05.844Z,3.53
2019-05-16T08:04:07.408Z,3.00
2019-05-16T08:09:12.038Z,2.02
2019-05-16T08:14:12.479Z,2.25
2019-05-16T08:19:13.989Z,2.60
2019-05-16T08:24:15.568Z,2.60
2019-05-16T08:29:17.127Z,3.02
2019-05-16T08:34:20.777Z,2.62
2019-05-16T08:39:22.081Z,2.22
2019-05-16T08:44:23.574Z,2.80
2019-05-16T08:49:25.144Z,2.60
2019-05-16T08:54:26.594Z,2.70
2019-05-16T08:59:28.080Z,2.60
2019-05-16T09:09:42.115Z,2.50
2019-05-16T09:10:25.133Z,2.02
2019-05-16T09:14:39.082Z,2.45
2019-05-16T09:19:39.804Z,2.05
2019-05-16T09:24:41.431Z,2.10
2019-05-16T09:29:43.005Z,2.27
2019-05-16T09:34:47.654Z,1.80
2019-05-16T09:39:48.238Z,1.95
2019-05-16T09:44:49.799Z,1.80
2019-05-16T09:49:51.344Z,2.15
2019-05-16T09:54:52.873Z,2.08
2019-05-16T09:59:54.355Z,1.95
2019-05-16T10:04:57.972Z,2.12
2019-05-16T10:09:59.461Z,2.25
2019-05-16T10:15:00.973Z,3.00
2019-05-16T10:20:02.504Z,2.37
2019-05-16T10:25:04.645Z,2.22
2019-05-16T10:30:08.564Z,2.33
2019-05-16T10:35:09.715Z,2.30
2019-05-16T10:40:11.189Z,2.70
2019-05-16T10:45:13.258Z,2.72
2019-05-16T10:50:16.635Z,2.27
2019-05-16T10:55:18.210Z,2.40
2019-05-16T11:00:42.680Z,2.52
2019-05-16T11:05:30.517Z,2.60
2019-05-16T11:10:29.566Z,2.47
2019-05-16T11:15:30.035Z,2.42
2019-05-16T11:20:31.651Z,2.80
2019-05-16T11:25:33.128Z,3.10
2019-05-16T11:30:37.344Z,2.70
2019-05-16T11:35:38.380Z,3.00
2019-05-16T11:40:39.832Z,3.05
2019-05-16T11:45:41.378Z,3.00
2019-05-16T11:50:42.958Z,3.40
2019-05-16T11:55:54.159Z,3.00
2019-05-16T12:00:48.445Z,2.60
2019-05-16T12:05:50.215Z,2.80
2019-05-16T12:10:51.712Z,2.92
2019-05-16T12:15:53.312Z,2.77
2019-05-16T12:20:56.569Z,3.00
2019-05-16T12:26:00.161Z,3.20
2019-05-16T12:31:01.769Z,3.67
2019-05-16T12:36:07.076Z,3.22
2019-05-16T12:41:07.614Z,3.22
2019-05-16T12:46:09.035Z,3.80
2019-05-16T12:51:10.504Z,3.42
2019-05-16T12:56:11.987Z,3.22
2019-05-16T13:01:16.458Z,3.70
2019-05-16T13:06:17.306Z,3.75
2019-05-16T13:11:18.919Z,3.55
2019-05-16T13:16:20.318Z,3.90
2019-05-16T13:21:22.907Z,3.67
2019-05-16T13:26:24.814Z,4.05
2019-05-16T13:31:28.686Z,3.30
2019-05-16T13:36:29.868Z,3.72
2019-05-16T13:41:34.304Z,3.77
2019-05-16T13:46:37.048Z,3.27
2019-05-16T13:51:38.344Z,4.00
2019-05-16T13:56:39.792Z,3.27
2019-05-16T14:01:41.341Z,3.65
2019-05-16T14:06:42.754Z,3.37
2019-05-16T14:11:46.355Z,3.58
2019-05-16T14:16:47.895Z,3.72
2019-05-16T14:21:49.422Z,4.85
2019-05-16T14:26:50.930Z,4.58
2019-05-16T14:31:52.443Z,4.00
2019-05-16T14:36:54.110Z,4.28
2019-05-16T14:41:56.805Z,4.33
2019-05-16T14:46:58.469Z,4.47
2019-05-16T14:51:59.932Z,5.37
2019-05-16T14:57:01.979Z,5.28
2019-05-16T15:02:03.756Z,3.17
2019-05-16T15:07:06.965Z,3.60
2019-05-16T15:12:08.726Z,3.30
2019-05-16T15:17:10.304Z,3.15
2019-05-16T15:22:12.029Z,3.67
2019-05-16T15:27:13.463Z,3.47
2019-05-16T15:32:17.524Z,3.12
2019-05-16T15:37:18.562Z,3.22
2019-05-16T15:42:20.056Z,4.00
2019-05-16T15:47:21.488Z,4.62
2019-05-16T15:52:23.027Z,4.70
2019-05-16T15:57:26.783Z,5.53
2019-05-16T16:02:28.203Z,5.40
2019-05-16T16:07:30.551Z,5.17
2019-05-16T16:12:32.043Z,5.03
2019-05-16T16:17:33.465Z,4.15
2019-05-16T16:22:37.531Z,4.17
2019-05-16T16:27:38.116Z,4.70
2019-05-16T16:32:39.483Z,3.83
2019-05-16T16:37:40.757Z,4.17
2019-05-16T16:42:43.082Z,3.92
2019-05-16T16:47:46.806Z,3.95
2019-05-16T16:52:47.616Z,3.98
2019-05-16T16:57:48.885Z,4.10
2019-05-16T17:03:01.998Z,3.80
2019-05-16T17:07:53.505Z,3.72
2019-05-16T17:12:57.391Z,3.47
2019-05-16T17:17:58.050Z,3.65
2019-05-16T17:22:59.438Z,3.27
2019-05-16T17:28:00.871Z,3.70
2019-05-16T17:33:02.100Z,4.12
2019-05-16T17:38:03.681Z,3.95
2019-05-16T17:43:07.350Z,4.47
2019-05-16T17:48:08.700Z,3.70
2019-05-16T17:53:10.202Z,3.85
2019-05-16T17:58:11.835Z,3.37
2019-05-16T18:03:13.356Z,3.65
2019-05-16T18:08:14.876Z,3.70
2019-05-16T18:13:16.493Z,3.92
2019-05-16T18:18:18.130Z,3.65
2019-05-16T18:23:19.651Z,4.45
2019-05-16T18:28:21.266Z,4.35
2019-05-16T18:33:24.559Z,5.53
2019-05-16T18:38:26.580Z,5.10
2019-05-16T18:43:28.482Z,4.92
2019-05-16T18:48:29.979Z,5.08
2019-05-16T18:53:31.509Z,5.30
2019-05-16T18:58:33.051Z,5.12
2019-05-16T19:03:34.678Z,5.47
2019-05-16T19:08:36.503Z,5.60
2019-05-16T19:13:38.091Z,5.30
2019-05-16T19:18:39.657Z,5.62
2019-05-16T19:23:41.272Z,5.67
2019-05-16T19:28:42.920Z,5.95
2019-05-16T19:33:48.577Z,5.50
2019-05-16T19:38:48.419Z,5.40
2019-05-16T19:43:50.100Z,4.62
2019-05-16T19:48:51.641Z,4.62
2019-05-16T19:53:53.308Z,4.40
2019-05-16T19:58:56.773Z,4.78
2019-05-16T20:03:58.394Z,5.12
2019-05-16T20:09:01.002Z,4.65
2019-05-16T20:14:02.666Z,4.95
2019-05-16T20:19:04.207Z,4.65
2019-05-16T20:24:07.459Z,5.10
2019-05-16T20:29:09.240Z,4.62
2019-05-16T20:34:10.844Z,4.77
2019-05-16T20:39:12.241Z,4.20
2019-05-16T20:44:13.733Z,4.10
2019-05-16T20:49:16.777Z,4.10
2019-05-16T20:54:18.436Z,3.90
2019-05-16T20:59:19.973Z,4.27
2019-05-16T21:04:21.481Z,4.27
2019-05-16T21:09:26.179Z,4.37
2019-05-16T21:14:27.385Z,4.70
2019-05-16T21:19:28.792Z,4.67
2019-05-16T21:24:30.294Z,4.30
2019-05-16T21:29:31.721Z,3.90
2019-05-16T21:34:33.233Z,4.85
2019-05-16T21:39:36.814Z,5.00
2019-05-16T21:44:38.203Z,5.17
2019-05-16T21:49:39.712Z,5.10
2019-05-16T21:54:41.270Z,4.50
2019-05-16T21:59:42.866Z,4.77
2019-05-16T22:04:44.440Z,5.30
2019-05-16T22:09:46.631Z,4.80
2019-05-16T22:14:50.102Z,5.10
2019-05-16T22:19:51.609Z,4.80
2019-05-16T22:24:53.147Z,4.47
2019-05-16T22:29:56.617Z,4.93
2019-05-16T22:34:59.950Z,4.70
2019-05-16T22:40:01.585Z,5.03
2019-05-16T22:45:03.190Z,4.90
2019-05-16T22:50:07.323Z,5.53
2019-05-16T22:55:08.490Z,5.00
2019-05-16T23:00:10.026Z,5.47
2019-05-16T23:05:11.586Z,5.50
2019-05-16T23:10:13.383Z,5.80
2019-05-16T23:15:17.110Z,5.40
2019-05-16T23:20:18.526Z,5.83
2019-05-16T23:25:20.010Z,5.90
2019-05-16T23:30:21.557Z,5.50
2019-05-16T23:35:23.063Z,5.67
2019-05-16T23:40:24.584Z,5.97
2019-05-16T23:45:27.512Z,6.23
2019-05-16T23:50:29.186Z,6.67
2019-05-16T23:55:32.704Z,6.00
